Boqueirao, Brazil
Current Conditions -  °F | °C
As of 3:00 PM on Monday 20 Oct 2014 (Local Time) from SBKG Reporting Station
Few Clouds Few Clouds  
Wind Chill: 86°   Ceiling: Unl
Heat Index: 86°   Visibility: 6mi
Dew Point: 59°   Wind: 10mph
Humidity: 40%   Direction: 140°SE
Pressure: 29.91"   Gusts: NA
Location:  7.48°S, 36.13°W
Report Text: SBKG 201800Z 14009KT 9999 FEW040 30/15 Q1013
Loading
Personal Weather Stations






























Interactive Weather Map
Tropical Storm Tracking
New forecast layout! Learn more

10-Day Weather Forecast

Advertisements
Track Severe Weather on mobile